sensor_id;sensor_type;location;lat;lon;timestamp;P1;durP1;ratioP1;P2;durP2;ratioP2
19879;SDS011;10102;50.828;4.416;2022-07-23T00:01:16;17.67;;;11.75;;
19879;SDS011;10102;50.828;4.416;2022-07-23T00:03:41;21.30;;;12.13;;
19879;SDS011;10102;50.828;4.416;2022-07-23T00:06:07;17.75;;;12.02;;
19879;SDS011;10102;50.828;4.416;2022-07-23T00:08:33;16.02;;;10.98;;
19879;SDS011;10102;50.828;4.416;2022-07-23T00:10:59;18.52;;;11.35;;
19879;SDS011;10102;50.828;4.416;2022-07-23T00:13:25;15.60;;;11.55;;
19879;SDS011;10102;50.828;4.416;2022-07-23T00:15:51;13.70;;;10.73;;
19879;SDS011;10102;50.828;4.416;2022-07-23T00:18:17;17.92;;;11.63;;
19879;SDS011;10102;50.828;4.416;2022-07-23T00:20:43;17.50;;;12.20;;
19879;SDS011;10102;50.828;4.416;2022-07-23T00:23:09;15.90;;;12.20;;
19879;SDS011;10102;50.828;4.416;2022-07-23T00:25:35;23.92;;;12.73;;
19879;SDS011;10102;50.828;4.416;2022-07-23T00:28:00;17.85;;;11.77;;
19879;SDS011;10102;50.828;4.416;2022-07-23T00:30:27;22.27;;;13.25;;
19879;SDS011;10102;50.828;4.416;2022-07-23T00:32:58;18.52;;;12.52;;
19879;SDS011;10102;50.828;4.416;2022-07-23T00:35:26;21.05;;;13.40;;
19879;SDS011;10102;50.828;4.416;2022-07-23T00:37:53;17.77;;;12.35;;
19879;SDS011;10102;50.828;4.416;2022-07-23T00:40:20;19.00;;;12.20;;
19879;SDS011;10102;50.828;4.416;2022-07-23T00:42:46;19.58;;;12.98;;
19879;SDS011;10102;50.828;4.416;2022-07-23T00:45:12;16.42;;;12.13;;
19879;SDS011;10102;50.828;4.416;2022-07-23T00:47:38;25.30;;;13.25;;
19879;SDS011;10102;50.828;4.416;2022-07-23T00:50:05;21.88;;;13.88;;
19879;SDS011;10102;50.828;4.416;2022-07-23T00:52:33;19.77;;;13.80;;
19879;SDS011;10102;50.828;4.416;2022-07-23T00:54:59;19.15;;;12.95;;
19879;SDS011;10102;50.828;4.416;2022-07-23T00:57:26;19.50;;;13.18;;
19879;SDS011;10102;50.828;4.416;2022-07-23T00:59:52;21.10;;;13.05;;
19879;SDS011;10102;50.828;4.416;2022-07-23T01:02:17;22.98;;;13.80;;
19879;SDS011;10102;50.828;4.416;2022-07-23T01:04:43;18.25;;;13.13;;
19879;SDS011;10102;50.828;4.416;2022-07-23T01:07:09;21.85;;;13.98;;
19879;SDS011;10102;50.828;4.416;2022-07-23T01:09:35;17.20;;;13.13;;
19879;SDS011;10102;50.828;4.416;2022-07-23T01:12:01;18.60;;;13.23;;
19879;SDS011;10102;50.828;4.416;2022-07-23T01:14:28;22.00;;;14.60;;
19879;SDS011;10102;50.828;4.416;2022-07-23T01:16:53;24.65;;;13.75;;
19879;SDS011;10102;50.828;4.416;2022-07-23T01:19:19;20.88;;;14.05;;
19879;SDS011;10102;50.828;4.416;2022-07-23T01:21:49;18.85;;;13.43;;
19879;SDS011;10102;50.828;4.416;2022-07-23T01:24:16;21.08;;;14.32;;
19879;SDS011;10102;50.828;4.416;2022-07-23T01:26:45;18.35;;;14.18;;
19879;SDS011;10102;50.828;4.416;2022-07-23T01:29:11;20.20;;;13.82;;
19879;SDS011;10102;50.828;4.416;2022-07-23T01:31:37;20.92;;;14.93;;
19879;SDS011;10102;50.828;4.416;2022-07-23T01:34:03;18.42;;;13.75;;
19879;SDS011;10102;50.828;4.416;2022-07-23T01:36:29;20.02;;;14.70;;
19879;SDS011;10102;50.828;4.416;2022-07-23T01:38:55;18.33;;;14.60;;
19879;SDS011;10102;50.828;4.416;2022-07-23T01:41:21;23.17;;;14.98;;
19879;SDS011;10102;50.828;4.416;2022-07-23T01:43:47;20.35;;;13.68;;
19879;SDS011;10102;50.828;4.416;2022-07-23T01:46:12;21.33;;;13.75;;
19879;SDS011;10102;50.828;4.416;2022-07-23T01:48:38;18.77;;;13.85;;
19879;SDS011;10102;50.828;4.416;2022-07-23T01:51:04;20.63;;;14.90;;
19879;SDS011;10102;50.828;4.416;2022-07-23T01:53:30;18.40;;;14.40;;
19879;SDS011;10102;50.828;4.416;2022-07-23T01:55:59;20.42;;;14.20;;
19879;SDS011;10102;50.828;4.416;2022-07-23T01:58:25;25.02;;;14.68;;
19879;SDS011;10102;50.828;4.416;2022-07-23T02:00:52;19.60;;;14.50;;
19879;SDS011;10102;50.828;4.416;2022-07-23T02:03:19;24.75;;;14.65;;
19879;SDS011;10102;50.828;4.416;2022-07-23T02:05:45;20.67;;;14.43;;
19879;SDS011;10102;50.828;4.416;2022-07-23T02:08:11;25.17;;;15.25;;
19879;SDS011;10102;50.828;4.416;2022-07-23T02:10:37;21.35;;;14.05;;
19879;SDS011;10102;50.828;4.416;2022-07-23T02:13:03;20.90;;;14.85;;
19879;SDS011;10102;50.828;4.416;2022-07-23T02:15:29;19.27;;;14.60;;
19879;SDS011;10102;50.828;4.416;2022-07-23T02:17:54;22.02;;;14.18;;
19879;SDS011;10102;50.828;4.416;2022-07-23T02:20:21;25.15;;;15.23;;
19879;SDS011;10102;50.828;4.416;2022-07-23T02:22:47;18.58;;;14.82;;
19879;SDS011;10102;50.828;4.416;2022-07-23T02:25:13;21.10;;;14.93;;
19879;SDS011;10102;50.828;4.416;2022-07-23T02:27:39;26.92;;;14.25;;
19879;SDS011;10102;50.828;4.416;2022-07-23T02:30:05;22.58;;;15.05;;
19879;SDS011;10102;50.828;4.416;2022-07-23T02:32:31;22.20;;;15.02;;
19879;SDS011;10102;50.828;4.416;2022-07-23T02:34:57;19.10;;;13.68;;
19879;SDS011;10102;50.828;4.416;2022-07-23T02:37:23;23.20;;;15.07;;
19879;SDS011;10102;50.828;4.416;2022-07-23T02:39:48;23.75;;;14.73;;
19879;SDS011;10102;50.828;4.416;2022-07-23T02:42:14;23.95;;;14.57;;
19879;SDS011;10102;50.828;4.416;2022-07-23T02:44:40;21.27;;;14.38;;
19879;SDS011;10102;50.828;4.416;2022-07-23T02:47:06;20.48;;;14.63;;
19879;SDS011;10102;50.828;4.416;2022-07-23T02:49:32;23.20;;;15.90;;
19879;SDS011;10102;50.828;4.416;2022-07-23T02:51:58;27.58;;;15.68;;
19879;SDS011;10102;50.828;4.416;2022-07-23T02:54:24;28.40;;;15.55;;
19879;SDS011;10102;50.828;4.416;2022-07-23T02:56:50;24.73;;;15.95;;
19879;SDS011;10102;50.828;4.416;2022-07-23T02:59:16;24.08;;;15.95;;
19879;SDS011;10102;50.828;4.416;2022-07-23T03:01:42;20.50;;;15.15;;
19879;SDS011;10102;50.828;4.416;2022-07-23T03:04:08;23.42;;;16.17;;
19879;SDS011;10102;50.828;4.416;2022-07-23T03:06:34;20.77;;;15.70;;
19879;SDS011;10102;50.828;4.416;2022-07-23T03:09:00;21.35;;;15.07;;
19879;SDS011;10102;50.828;4.416;2022-07-23T03:11:26;19.88;;;14.30;;
19879;SDS011;10102;50.828;4.416;2022-07-23T03:13:52;20.25;;;14.98;;
19879;SDS011;10102;50.828;4.416;2022-07-23T03:16:18;21.80;;;15.70;;
19879;SDS011;10102;50.828;4.416;2022-07-23T03:18:43;20.50;;;14.52;;
19879;SDS011;10102;50.828;4.416;2022-07-23T03:21:09;26.85;;;15.32;;
19879;SDS011;10102;50.828;4.416;2022-07-23T03:23:35;23.17;;;15.73;;
19879;SDS011;10102;50.828;4.416;2022-07-23T03:26:01;19.85;;;14.65;;
19879;SDS011;10102;50.828;4.416;2022-07-23T03:28:27;21.75;;;15.40;;
19879;SDS011;10102;50.828;4.416;2022-07-23T03:30:52;20.67;;;15.63;;
19879;SDS011;10102;50.828;4.416;2022-07-23T03:33:19;23.48;;;15.60;;
19879;SDS011;10102;50.828;4.416;2022-07-23T03:35:46;20.75;;;15.25;;
19879;SDS011;10102;50.828;4.416;2022-07-23T03:38:12;20.83;;;14.77;;
19879;SDS011;10102;50.828;4.416;2022-07-23T03:40:39;18.98;;;14.75;;
19879;SDS011;10102;50.828;4.416;2022-07-23T03:43:04;18.98;;;15.20;;
19879;SDS011;10102;50.828;4.416;2022-07-23T03:45:30;23.10;;;14.52;;
19879;SDS011;10102;50.828;4.416;2022-07-23T03:47:56;20.83;;;15.13;;
19879;SDS011;10102;50.828;4.416;2022-07-23T03:50:23;22.73;;;14.63;;
19879;SDS011;10102;50.828;4.416;2022-07-23T03:52:49;22.38;;;14.32;;
19879;SDS011;10102;50.828;4.416;2022-07-23T03:55:14;20.75;;;13.60;;
19879;SDS011;10102;50.828;4.416;2022-07-23T03:57:40;19.73;;;14.35;;
19879;SDS011;10102;50.828;4.416;2022-07-23T04:00:06;22.02;;;15.07;;
19879;SDS011;10102;50.828;4.416;2022-07-23T04:02:37;20.10;;;15.07;;
19879;SDS011;10102;50.828;4.416;2022-07-23T04:05:04;20.90;;;14.52;;
19879;SDS011;10102;50.828;4.416;2022-07-23T04:07:30;21.38;;;14.10;;
19879;SDS011;10102;50.828;4.416;2022-07-23T04:09:56;19.70;;;14.07;;
19879;SDS011;10102;50.828;4.416;2022-07-23T04:12:22;22.60;;;14.70;;
19879;SDS011;10102;50.828;4.416;2022-07-23T04:14:48;24.30;;;15.63;;
19879;SDS011;10102;50.828;4.416;2022-07-23T04:17:14;23.15;;;15.73;;
19879;SDS011;10102;50.828;4.416;2022-07-23T04:19:39;20.80;;;14.73;;
19879;SDS011;10102;50.828;4.416;2022-07-23T04:22:10;22.30;;;15.48;;
19879;SDS011;10102;50.828;4.416;2022-07-23T04:24:36;19.45;;;14.52;;
19879;SDS011;10102;50.828;4.416;2022-07-23T04:27:02;21.02;;;15.05;;
19879;SDS011;10102;50.828;4.416;2022-07-23T04:29:28;20.75;;;14.55;;
19879;SDS011;10102;50.828;4.416;2022-07-23T04:31:54;19.52;;;14.32;;
19879;SDS011;10102;50.828;4.416;2022-07-23T04:34:20;20.80;;;14.20;;
19879;SDS011;10102;50.828;4.416;2022-07-23T04:36:46;24.70;;;15.60;;
19879;SDS011;10102;50.828;4.416;2022-07-23T04:39:12;22.75;;;15.23;;
19879;SDS011;10102;50.828;4.416;2022-07-23T04:41:39;23.40;;;15.18;;
19879;SDS011;10102;50.828;4.416;2022-07-23T04:44:05;19.30;;;14.40;;
19879;SDS011;10102;50.828;4.416;2022-07-23T04:46:31;21.17;;;14.77;;
19879;SDS011;10102;50.828;4.416;2022-07-23T04:48:57;19.23;;;13.90;;
19879;SDS011;10102;50.828;4.416;2022-07-23T04:51:22;20.33;;;15.10;;
19879;SDS011;10102;50.828;4.416;2022-07-23T04:53:48;22.35;;;14.82;;
19879;SDS011;10102;50.828;4.416;2022-07-23T04:56:14;20.55;;;14.13;;
19879;SDS011;10102;50.828;4.416;2022-07-23T04:58:40;27.50;;;14.98;;
19879;SDS011;10102;50.828;4.416;2022-07-23T05:01:06;18.48;;;13.48;;
19879;SDS011;10102;50.828;4.416;2022-07-23T05:03:32;22.92;;;14.27;;
19879;SDS011;10102;50.828;4.416;2022-07-23T05:05:58;21.25;;;14.50;;
19879;SDS011;10102;50.828;4.416;2022-07-23T05:08:24;23.55;;;15.48;;
19879;SDS011;10102;50.828;4.416;2022-07-23T05:10:50;27.55;;;14.25;;
19879;SDS011;10102;50.828;4.416;2022-07-23T05:13:16;20.40;;;14.57;;
19879;SDS011;10102;50.828;4.416;2022-07-23T05:15:43;21.80;;;15.18;;
19879;SDS011;10102;50.828;4.416;2022-07-23T05:18:09;22.15;;;14.27;;
19879;SDS011;10102;50.828;4.416;2022-07-23T05:20:35;23.13;;;13.88;;
19879;SDS011;10102;50.828;4.416;2022-07-23T05:23:01;20.88;;;14.27;;
19879;SDS011;10102;50.828;4.416;2022-07-23T05:25:27;18.55;;;13.23;;
19879;SDS011;10102;50.828;4.416;2022-07-23T05:27:53;19.17;;;13.35;;
19879;SDS011;10102;50.828;4.416;2022-07-23T05:30:19;17.50;;;13.63;;
19879;SDS011;10102;50.828;4.416;2022-07-23T05:32:44;19.80;;;13.38;;
19879;SDS011;10102;50.828;4.416;2022-07-23T05:35:10;18.70;;;13.60;;
19879;SDS011;10102;50.828;4.416;2022-07-23T05:37:36;23.48;;;13.75;;
19879;SDS011;10102;50.828;4.416;2022-07-23T05:40:02;18.60;;;13.40;;
19879;SDS011;10102;50.828;4.416;2022-07-23T05:42:31;18.95;;;13.75;;
19879;SDS011;10102;50.828;4.416;2022-07-23T05:44:57;20.13;;;13.52;;
19879;SDS011;10102;50.828;4.416;2022-07-23T05:47:22;17.33;;;13.85;;
19879;SDS011;10102;50.828;4.416;2022-07-23T05:49:48;19.98;;;13.80;;
19879;SDS011;10102;50.828;4.416;2022-07-23T05:52:14;17.45;;;14.07;;
19879;SDS011;10102;50.828;4.416;2022-07-23T05:54:40;18.77;;;14.60;;
19879;SDS011;10102;50.828;4.416;2022-07-23T05:57:05;21.52;;;13.63;;
19879;SDS011;10102;50.828;4.416;2022-07-23T05:59:31;20.88;;;13.73;;
19879;SDS011;10102;50.828;4.416;2022-07-23T06:01:57;21.13;;;14.57;;
19879;SDS011;10102;50.828;4.416;2022-07-23T06:04:23;20.38;;;14.77;;
19879;SDS011;10102;50.828;4.416;2022-07-23T06:06:49;22.25;;;14.93;;
19879;SDS011;10102;50.828;4.416;2022-07-23T06:09:14;20.27;;;13.90;;
19879;SDS011;10102;50.828;4.416;2022-07-23T06:11:40;21.23;;;13.65;;
19879;SDS011;10102;50.828;4.416;2022-07-23T06:14:06;20.73;;;14.45;;
19879;SDS011;10102;50.828;4.416;2022-07-23T06:16:31;19.20;;;14.38;;
19879;SDS011;10102;50.828;4.416;2022-07-23T06:18:58;18.42;;;13.73;;
19879;SDS011;10102;50.828;4.416;2022-07-23T06:21:24;19.33;;;13.52;;
19879;SDS011;10102;50.828;4.416;2022-07-23T06:23:49;21.75;;;14.63;;
19879;SDS011;10102;50.828;4.416;2022-07-23T06:26:15;19.60;;;14.23;;
19879;SDS011;10102;50.828;4.416;2022-07-23T06:28:41;20.52;;;13.43;;
19879;SDS011;10102;50.828;4.416;2022-07-23T06:31:06;20.15;;;13.10;;
19879;SDS011;10102;50.828;4.416;2022-07-23T06:33:33;20.13;;;13.63;;
19879;SDS011;10102;50.828;4.416;2022-07-23T06:35:58;18.40;;;13.25;;
19879;SDS011;10102;50.828;4.416;2022-07-23T06:38:24;24.17;;;12.60;;
19879;SDS011;10102;50.828;4.416;2022-07-23T06:40:50;18.23;;;13.00;;
19879;SDS011;10102;50.828;4.416;2022-07-23T06:43:17;17.92;;;12.40;;
19879;SDS011;10102;50.828;4.416;2022-07-23T06:45:42;17.02;;;12.98;;
19879;SDS011;10102;50.828;4.416;2022-07-23T06:48:08;19.02;;;12.15;;
19879;SDS011;10102;50.828;4.416;2022-07-23T06:50:34;19.88;;;12.48;;
19879;SDS011;10102;50.828;4.416;2022-07-23T06:53:00;20.38;;;13.13;;
19879;SDS011;10102;50.828;4.416;2022-07-23T06:55:26;15.82;;;13.13;;
19879;SDS011;10102;50.828;4.416;2022-07-23T06:57:52;19.80;;;12.82;;
19879;SDS011;10102;50.828;4.416;2022-07-23T07:00:17;20.88;;;12.43;;
19879;SDS011;10102;50.828;4.416;2022-07-23T07:02:43;17.85;;;11.65;;
19879;SDS011;10102;50.828;4.416;2022-07-23T07:05:09;17.80;;;11.15;;
19879;SDS011;10102;50.828;4.416;2022-07-23T07:07:35;17.38;;;10.98;;
19879;SDS011;10102;50.828;4.416;2022-07-23T07:10:02;17.13;;;13.18;;
19879;SDS011;10102;50.828;4.416;2022-07-23T07:12:28;16.90;;;11.60;;
19879;SDS011;10102;50.828;4.416;2022-07-23T07:14:54;17.15;;;12.48;;
19879;SDS011;10102;50.828;4.416;2022-07-23T07:17:19;17.85;;;11.35;;
19879;SDS011;10102;50.828;4.416;2022-07-23T07:19:45;16.42;;;11.60;;
19879;SDS011;10102;50.828;4.416;2022-07-23T07:22:11;17.85;;;10.68;;
19879;SDS011;10102;50.828;4.416;2022-07-23T07:24:37;16.90;;;10.68;;
19879;SDS011;10102;50.828;4.416;2022-07-23T07:27:02;13.80;;;10.35;;
19879;SDS011;10102;50.828;4.416;2022-07-23T07:29:28;17.45;;;11.23;;
19879;SDS011;10102;50.828;4.416;2022-07-23T07:31:54;15.77;;;10.68;;
19879;SDS011;10102;50.828;4.416;2022-07-23T07:34:22;20.08;;;10.85;;
19879;SDS011;10102;50.828;4.416;2022-07-23T07:36:47;17.30;;;10.68;;
19879;SDS011;10102;50.828;4.416;2022-07-23T07:39:13;17.30;;;10.73;;
19879;SDS011;10102;50.828;4.416;2022-07-23T07:41:39;15.57;;;9.90;;
19879;SDS011;10102;50.828;4.416;2022-07-23T07:44:05;14.70;;;9.90;;
19879;SDS011;10102;50.828;4.416;2022-07-23T07:46:30;17.98;;;9.73;;
19879;SDS011;10102;50.828;4.416;2022-07-23T07:48:56;13.35;;;9.40;;
19879;SDS011;10102;50.828;4.416;2022-07-23T07:51:22;12.55;;;9.73;;
19879;SDS011;10102;50.828;4.416;2022-07-23T07:53:47;17.80;;;10.60;;
19879;SDS011;10102;50.828;4.416;2022-07-23T07:56:13;13.93;;;9.65;;
19879;SDS011;10102;50.828;4.416;2022-07-23T07:58:39;12.98;;;9.32;;
19879;SDS011;10102;50.828;4.416;2022-07-23T08:01:05;16.25;;;9.85;;
19879;SDS011;10102;50.828;4.416;2022-07-23T08:03:30;16.60;;;9.32;;
19879;SDS011;10102;50.828;4.416;2022-07-23T08:05:56;13.07;;;9.30;;
19879;SDS011;10102;50.828;4.416;2022-07-23T08:08:21;18.25;;;9.80;;
19879;SDS011;10102;50.828;4.416;2022-07-23T08:10:47;13.07;;;9.27;;
19879;SDS011;10102;50.828;4.416;2022-07-23T08:13:13;15.68;;;9.43;;
19879;SDS011;10102;50.828;4.416;2022-07-23T08:15:40;16.88;;;9.27;;
19879;SDS011;10102;50.828;4.416;2022-07-23T08:18:06;11.38;;;8.80;;
19879;SDS011;10102;50.828;4.416;2022-07-23T08:20:32;15.60;;;9.98;;
19879;SDS011;10102;50.828;4.416;2022-07-23T08:23:03;12.57;;;7.88;;
19879;SDS011;10102;50.828;4.416;2022-07-23T08:25:31;12.45;;;9.15;;
19879;SDS011;10102;50.828;4.416;2022-07-23T08:28:02;13.93;;;8.15;;
19879;SDS011;10102;50.828;4.416;2022-07-23T08:30:29;13.55;;;9.13;;
19879;SDS011;10102;50.828;4.416;2022-07-23T08:32:57;13.13;;;8.00;;
19879;SDS011;10102;50.828;4.416;2022-07-23T08:35:28;19.20;;;9.93;;
19879;SDS011;10102;50.828;4.416;2022-07-23T08:38:16;14.23;;;8.02;;
19879;SDS011;10102;50.828;4.416;2022-07-23T08:40:44;12.32;;;7.80;;
19879;SDS011;10102;50.828;4.416;2022-07-23T08:43:12;12.27;;;8.38;;
19879;SDS011;10102;50.828;4.416;2022-07-23T08:45:46;15.77;;;9.00;;
19879;SDS011;10102;50.828;4.416;2022-07-23T08:48:14;15.88;;;8.60;;
19879;SDS011;10102;50.828;4.416;2022-07-23T08:50:42;12.50;;;8.57;;
19879;SDS011;10102;50.828;4.416;2022-07-23T08:53:10;16.23;;;8.70;;
19879;SDS011;10102;50.828;4.416;2022-07-23T08:55:36;15.07;;;7.72;;
19879;SDS011;10102;50.828;4.416;2022-07-23T08:58:01;13.90;;;7.72;;
19879;SDS011;10102;50.828;4.416;2022-07-23T09:00:28;18.15;;;8.02;;
19879;SDS011;10102;50.828;4.416;2022-07-23T09:02:54;18.15;;;7.47;;
19879;SDS011;10102;50.828;4.416;2022-07-23T09:05:20;12.85;;;7.70;;
19879;SDS011;10102;50.828;4.416;2022-07-23T09:15:54;13.73;;;8.63;;
19879;SDS011;10102;50.828;4.416;2022-07-23T09:21:13;13.02;;;7.10;;
19879;SDS011;10102;50.828;4.416;2022-07-23T09:26:28;14.23;;;7.65;;
19879;SDS011;10102;50.828;4.416;2022-07-23T09:29:05;12.65;;;7.25;;
19879;SDS011;10102;50.828;4.416;2022-07-23T09:34:16;12.63;;;7.18;;
19879;SDS011;10102;50.828;4.416;2022-07-23T09:36:49;11.13;;;6.82;;
19879;SDS011;10102;50.828;4.416;2022-07-23T09:39:22;11.60;;;6.70;;
19879;SDS011;10102;50.828;4.416;2022-07-23T09:41:57;8.48;;;6.15;;
19879;SDS011;10102;50.828;4.416;2022-07-23T09:44:40;12.88;;;6.70;;
19879;SDS011;10102;50.828;4.416;2022-07-23T09:47:07;11.27;;;6.65;;
19879;SDS011;10102;50.828;4.416;2022-07-23T09:49:32;10.30;;;5.68;;
19879;SDS011;10102;50.828;4.416;2022-07-23T09:51:59;12.45;;;6.63;;
19879;SDS011;10102;50.828;4.416;2022-07-23T09:54:36;8.05;;;6.00;;
19879;SDS011;10102;50.828;4.416;2022-07-23T09:57:08;9.48;;;5.60;;
19879;SDS011;10102;50.828;4.416;2022-07-23T09:59:41;7.47;;;5.97;;
19879;SDS011;10102;50.828;4.416;2022-07-23T10:02:10;10.27;;;5.97;;
19879;SDS011;10102;50.828;4.416;2022-07-23T10:04:37;10.90;;;6.10;;
19879;SDS011;10102;50.828;4.416;2022-07-23T10:07:04;9.95;;;6.05;;
19879;SDS011;10102;50.828;4.416;2022-07-23T10:09:34;8.48;;;5.15;;
19879;SDS011;10102;50.828;4.416;2022-07-23T10:12:10;7.30;;;4.80;;
19879;SDS011;10102;50.828;4.416;2022-07-23T10:14:40;7.15;;;5.18;;
19879;SDS011;10102;50.828;4.416;2022-07-23T10:17:07;7.35;;;4.40;;
19879;SDS011;10102;50.828;4.416;2022-07-23T10:19:34;8.20;;;4.82;;
19879;SDS011;10102;50.828;4.416;2022-07-23T10:22:07;7.57;;;5.40;;
19879;SDS011;10102;50.828;4.416;2022-07-23T10:30:31;6.35;;;4.40;;
19879;SDS011;10102;50.828;4.416;2022-07-23T10:41:33;8.15;;;3.92;;
19879;SDS011;10102;50.828;4.416;2022-07-23T10:44:10;5.55;;;4.28;;
19879;SDS011;10102;50.828;4.416;2022-07-23T10:49:38;6.82;;;4.13;;
19879;SDS011;10102;50.828;4.416;2022-07-23T10:54:44;6.78;;;3.95;;
19879;SDS011;10102;50.828;4.416;2022-07-23T10:57:15;5.85;;;4.10;;
19879;SDS011;10102;50.828;4.416;2022-07-23T11:02:37;8.82;;;4.03;;
19879;SDS011;10102;50.828;4.416;2022-07-23T11:05:08;7.00;;;3.83;;
19879;SDS011;10102;50.828;4.416;2022-07-23T11:07:36;7.35;;;4.30;;
19879;SDS011;10102;50.828;4.416;2022-07-23T11:10:34;8.20;;;3.45;;
19879;SDS011;10102;50.828;4.416;2022-07-23T11:16:06;8.25;;;3.90;;
19879;SDS011;10102;50.828;4.416;2022-07-23T11:32:02;10.00;;;4.05;;
19879;SDS011;10102;50.828;4.416;2022-07-23T11:34:31;6.82;;;4.07;;
19879;SDS011;10102;50.828;4.416;2022-07-23T11:36:57;4.75;;;2.88;;
19879;SDS011;10102;50.828;4.416;2022-07-23T11:39:24;3.67;;;2.78;;
19879;SDS011;10102;50.828;4.416;2022-07-23T11:41:52;6.22;;;3.22;;
19879;SDS011;10102;50.828;4.416;2022-07-23T11:44:25;4.30;;;3.20;;
19879;SDS011;10102;50.828;4.416;2022-07-23T11:47:07;13.93;;;3.40;;
19879;SDS011;10102;50.828;4.416;2022-07-23T11:49:34;7.80;;;3.55;;
19879;SDS011;10102;50.828;4.416;2022-07-23T11:52:10;7.57;;;3.53;;
19879;SDS011;10102;50.828;4.416;2022-07-23T11:54:48;5.45;;;2.88;;
19879;SDS011;10102;50.828;4.416;2022-07-23T11:57:25;3.42;;;2.67;;
19879;SDS011;10102;50.828;4.416;2022-07-23T11:59:56;6.95;;;3.70;;
19879;SDS011;10102;50.828;4.416;2022-07-23T12:02:36;5.82;;;3.58;;
19879;SDS011;10102;50.828;4.416;2022-07-23T12:05:03;5.78;;;3.00;;
19879;SDS011;10102;50.828;4.416;2022-07-23T12:10:10;9.95;;;4.32;;
19879;SDS011;10102;50.828;4.416;2022-07-23T12:12:47;8.18;;;4.05;;
19879;SDS011;10102;50.828;4.416;2022-07-23T12:15:19;6.68;;;3.60;;
19879;SDS011;10102;50.828;4.416;2022-07-23T12:17:47;5.07;;;3.83;;
19879;SDS011;10102;50.828;4.416;2022-07-23T12:20:15;4.32;;;3.00;;
19879;SDS011;10102;50.828;4.416;2022-07-23T12:22:47;6.38;;;4.97;;
19879;SDS011;10102;50.828;4.416;2022-07-23T12:25:18;8.38;;;4.20;;
19879;SDS011;10102;50.828;4.416;2022-07-23T12:27:45;4.45;;;3.60;;
19879;SDS011;10102;50.828;4.416;2022-07-23T12:30:31;6.35;;;4.32;;
19879;SDS011;10102;50.828;4.416;2022-07-23T12:32:58;8.30;;;3.90;;
19879;SDS011;10102;50.828;4.416;2022-07-23T12:35:30;7.53;;;3.80;;
19879;SDS011;10102;50.828;4.416;2022-07-23T12:38:03;8.93;;;4.75;;
19879;SDS011;10102;50.828;4.416;2022-07-23T12:43:00;6.95;;;5.75;;
19879;SDS011;10102;50.828;4.416;2022-07-23T12:53:21;8.07;;;5.43;;
19879;SDS011;10102;50.828;4.416;2022-07-23T12:55:56;9.85;;;6.57;;
19879;SDS011;10102;50.828;4.416;2022-07-23T13:04:24;8.75;;;4.53;;
19879;SDS011;10102;50.828;4.416;2022-07-23T13:06:45;6.38;;;4.85;;
19879;SDS011;10102;50.828;4.416;2022-07-23T13:09:13;17.95;;;7.13;;
19879;SDS011;10102;50.828;4.416;2022-07-23T13:11:45;21.17;;;7.40;;
19879;SDS011;10102;50.828;4.416;2022-07-23T13:14:11;13.00;;;5.68;;
19879;SDS011;10102;50.828;4.416;2022-07-23T13:16:38;16.83;;;5.65;;
19879;SDS011;10102;50.828;4.416;2022-07-23T13:19:05;11.35;;;7.60;;
19879;SDS011;10102;50.828;4.416;2022-07-23T13:21:31;7.80;;;6.30;;
19879;SDS011;10102;50.828;4.416;2022-07-23T13:23:57;11.82;;;6.78;;
19879;SDS011;10102;50.828;4.416;2022-07-23T13:26:23;14.32;;;6.80;;
19879;SDS011;10102;50.828;4.416;2022-07-23T13:28:49;11.75;;;6.03;;
19879;SDS011;10102;50.828;4.416;2022-07-23T13:31:18;11.68;;;5.38;;
19879;SDS011;10102;50.828;4.416;2022-07-23T13:33:44;6.20;;;4.90;;
19879;SDS011;10102;50.828;4.416;2022-07-23T13:36:10;8.52;;;4.53;;
19879;SDS011;10102;50.828;4.416;2022-07-23T13:38:36;5.25;;;4.60;;
19879;SDS011;10102;50.828;4.416;2022-07-23T13:41:02;5.32;;;4.50;;
19879;SDS011;10102;50.828;4.416;2022-07-23T13:43:28;4.78;;;4.00;;
19879;SDS011;10102;50.828;4.416;2022-07-23T13:45:54;9.25;;;4.28;;
19879;SDS011;10102;50.828;4.416;2022-07-23T13:48:20;9.73;;;4.40;;
19879;SDS011;10102;50.828;4.416;2022-07-23T13:50:47;9.75;;;4.80;;
19879;SDS011;10102;50.828;4.416;2022-07-23T13:53:15;5.13;;;3.90;;
19879;SDS011;10102;50.828;4.416;2022-07-23T13:55:45;5.43;;;3.70;;
19879;SDS011;10102;50.828;4.416;2022-07-23T13:58:13;6.95;;;4.43;;
19879;SDS011;10102;50.828;4.416;2022-07-23T14:00:41;4.35;;;3.63;;
19879;SDS011;10102;50.828;4.416;2022-07-23T14:03:11;6.55;;;3.88;;
19879;SDS011;10102;50.828;4.416;2022-07-23T14:05:37;10.02;;;3.75;;
19879;SDS011;10102;50.828;4.416;2022-07-23T14:08:03;4.40;;;3.58;;
19879;SDS011;10102;50.828;4.416;2022-07-23T14:10:29;5.63;;;3.53;;
19879;SDS011;10102;50.828;4.416;2022-07-23T14:12:55;4.82;;;3.70;;
19879;SDS011;10102;50.828;4.416;2022-07-23T14:15:22;4.22;;;3.83;;
19879;SDS011;10102;50.828;4.416;2022-07-23T14:17:49;5.38;;;3.40;;
19879;SDS011;10102;50.828;4.416;2022-07-23T14:20:15;7.88;;;3.50;;
19879;SDS011;10102;50.828;4.416;2022-07-23T14:22:41;7.13;;;3.55;;
19879;SDS011;10102;50.828;4.416;2022-07-23T14:25:07;4.45;;;3.65;;
19879;SDS011;10102;50.828;4.416;2022-07-23T14:27:34;4.40;;;3.60;;
19879;SDS011;10102;50.828;4.416;2022-07-23T14:30:02;5.50;;;3.65;;
19879;SDS011;10102;50.828;4.416;2022-07-23T14:32:29;6.00;;;3.55;;
19879;SDS011;10102;50.828;4.416;2022-07-23T14:34:55;10.63;;;4.13;;
19879;SDS011;10102;50.828;4.416;2022-07-23T14:37:21;5.93;;;3.67;;
19879;SDS011;10102;50.828;4.416;2022-07-23T14:39:47;7.65;;;3.40;;
19879;SDS011;10102;50.828;4.416;2022-07-23T14:42:12;5.00;;;3.63;;
19879;SDS011;10102;50.828;4.416;2022-07-23T14:44:39;4.70;;;3.30;;
19879;SDS011;10102;50.828;4.416;2022-07-23T14:47:05;5.18;;;3.65;;
19879;SDS011;10102;50.828;4.416;2022-07-23T14:49:31;4.35;;;3.30;;
19879;SDS011;10102;50.828;4.416;2022-07-23T14:51:57;4.30;;;3.85;;
19879;SDS011;10102;50.828;4.416;2022-07-23T14:54:24;6.32;;;3.20;;
19879;SDS011;10102;50.828;4.416;2022-07-23T14:56:52;4.20;;;3.78;;
19879;SDS011;10102;50.828;4.416;2022-07-23T14:59:21;6.30;;;4.05;;
19879;SDS011;10102;50.828;4.416;2022-07-23T15:01:47;5.28;;;4.50;;
19879;SDS011;10102;50.828;4.416;2022-07-23T15:04:13;8.05;;;4.18;;
19879;SDS011;10102;50.828;4.416;2022-07-23T15:06:39;9.77;;;3.90;;
19879;SDS011;10102;50.828;4.416;2022-07-23T15:09:05;7.47;;;3.75;;
19879;SDS011;10102;50.828;4.416;2022-07-23T15:11:31;8.55;;;3.65;;
19879;SDS011;10102;50.828;4.416;2022-07-23T15:13:59;5.93;;;3.78;;
19879;SDS011;10102;50.828;4.416;2022-07-23T15:16:26;7.57;;;4.18;;
19879;SDS011;10102;50.828;4.416;2022-07-23T15:18:52;5.90;;;3.85;;
19879;SDS011;10102;50.828;4.416;2022-07-23T15:21:18;5.47;;;3.60;;
19879;SDS011;10102;50.828;4.416;2022-07-23T15:23:44;7.53;;;4.40;;
19879;SDS011;10102;50.828;4.416;2022-07-23T15:26:10;6.03;;;4.10;;
19879;SDS011;10102;50.828;4.416;2022-07-23T15:28:36;4.72;;;3.55;;
19879;SDS011;10102;50.828;4.416;2022-07-23T15:31:02;6.38;;;4.07;;
19879;SDS011;10102;50.828;4.416;2022-07-23T15:33:28;10.77;;;4.40;;
19879;SDS011;10102;50.828;4.416;2022-07-23T15:35:54;4.18;;;3.50;;
19879;SDS011;10102;50.828;4.416;2022-07-23T15:38:21;5.35;;;3.97;;
19879;SDS011;10102;50.828;4.416;2022-07-23T15:40:47;4.28;;;3.88;;
19879;SDS011;10102;50.828;4.416;2022-07-23T15:43:13;5.25;;;3.90;;
19879;SDS011;10102;50.828;4.416;2022-07-23T15:45:39;7.95;;;4.00;;